sensor_id;sensor_type;location;lat;lon;timestamp;P1;durP1;ratioP1;P2;durP2;ratioP2
47413;SDS011;33163;0.000;0.000;2022-10-16T00:02:24;3.38;;;1.30;;
47413;SDS011;33163;0.000;0.000;2022-10-16T00:04:50;4.00;;;1.10;;
47413;SDS011;33163;0.000;0.000;2022-10-16T00:07:17;4.72;;;1.23;;
47413;SDS011;33163;0.000;0.000;2022-10-16T00:09:45;3.25;;;1.10;;
47413;SDS011;33163;0.000;0.000;2022-10-16T00:12:12;2.03;;;1.02;;
47413;SDS011;33163;0.000;0.000;2022-10-16T00:14:39;2.15;;;1.15;;
47413;SDS011;33163;0.000;0.000;2022-10-16T00:17:06;3.20;;;1.20;;
47413;SDS011;33163;0.000;0.000;2022-10-16T00:19:33;1.80;;;1.02;;
47413;SDS011;33163;0.000;0.000;2022-10-16T00:22:00;3.33;;;1.30;;
47413;SDS011;33163;0.000;0.000;2022-10-16T00:24:27;1.45;;;0.98;;
47413;SDS011;33163;0.000;0.000;2022-10-16T00:26:55;2.78;;;0.98;;
47413;SDS011;33163;0.000;0.000;2022-10-16T00:29:22;1.70;;;0.80;;
47413;SDS011;33163;0.000;0.000;2022-10-16T00:31:49;1.70;;;1.13;;
47413;SDS011;33163;0.000;0.000;2022-10-16T00:34:15;2.20;;;1.00;;
47413;SDS011;33163;0.000;0.000;2022-10-16T00:36:42;3.05;;;1.15;;
47413;SDS011;33163;0.000;0.000;2022-10-16T00:39:09;3.08;;;1.10;;
47413;SDS011;33163;0.000;0.000;2022-10-16T00:41:35;2.63;;;1.30;;
47413;SDS011;33163;0.000;0.000;2022-10-16T00:44:40;2.30;;;0.95;;
47413;SDS011;33163;0.000;0.000;2022-10-16T00:47:09;1.20;;;0.95;;
47413;SDS011;33163;0.000;0.000;2022-10-16T00:49:37;1.38;;;1.05;;
47413;SDS011;33163;0.000;0.000;2022-10-16T00:52:04;2.88;;;0.95;;
47413;SDS011;33163;0.000;0.000;2022-10-16T00:54:32;1.08;;;0.80;;
47413;SDS011;33163;0.000;0.000;2022-10-16T00:57:00;2.30;;;1.25;;
47413;SDS011;33163;0.000;0.000;2022-10-16T00:59:32;1.77;;;1.15;;
47413;SDS011;33163;0.000;0.000;2022-10-16T01:02:01;2.85;;;1.10;;
47413;SDS011;33163;0.000;0.000;2022-10-16T01:04:30;1.50;;;0.90;;
47413;SDS011;33163;0.000;0.000;2022-10-16T01:07:02;2.08;;;1.13;;
47413;SDS011;33163;0.000;0.000;2022-10-16T01:09:37;2.47;;;0.85;;
47413;SDS011;33163;0.000;0.000;2022-10-16T01:12:14;1.80;;;0.70;;
47413;SDS011;33163;0.000;0.000;2022-10-16T01:14:47;1.65;;;0.90;;
47413;SDS011;33163;0.000;0.000;2022-10-16T01:17:21;3.90;;;1.40;;
47413;SDS011;33163;0.000;0.000;2022-10-16T01:22:33;1.77;;;1.00;;
47413;SDS011;33163;0.000;0.000;2022-10-16T01:25:09;1.40;;;0.88;;
47413;SDS011;33163;0.000;0.000;2022-10-16T01:27:43;1.45;;;0.90;;
47413;SDS011;33163;0.000;0.000;2022-10-16T01:30:14;1.27;;;0.90;;
47413;SDS011;33163;0.000;0.000;2022-10-16T01:32:45;2.00;;;1.02;;
47413;SDS011;33163;0.000;0.000;2022-10-16T01:35:18;3.17;;;0.90;;
47413;SDS011;33163;0.000;0.000;2022-10-16T01:37:50;2.28;;;0.70;;
47413;SDS011;33163;0.000;0.000;2022-10-16T01:40:21;1.55;;;0.80;;
47413;SDS011;33163;0.000;0.000;2022-10-16T01:42:53;1.30;;;0.80;;
47413;SDS011;33163;0.000;0.000;2022-10-16T01:45:23;2.60;;;0.70;;
47413;SDS011;33163;0.000;0.000;2022-10-16T01:47:50;1.92;;;0.90;;
47413;SDS011;33163;0.000;0.000;2022-10-16T01:50:18;0.77;;;0.77;;
47413;SDS011;33163;0.000;0.000;2022-10-16T01:52:48;1.23;;;0.85;;
47413;SDS011;33163;0.000;0.000;2022-10-16T01:55:19;2.47;;;1.02;;
47413;SDS011;33163;0.000;0.000;2022-10-16T01:57:50;1.90;;;0.90;;
47413;SDS011;33163;0.000;0.000;2022-10-16T02:00:19;2.25;;;0.85;;
47413;SDS011;33163;0.000;0.000;2022-10-16T02:02:49;1.67;;;0.90;;
47413;SDS011;33163;0.000;0.000;2022-10-16T02:05:18;2.97;;;0.90;;
47413;SDS011;33163;0.000;0.000;2022-10-16T02:07:48;1.38;;;0.77;;
47413;SDS011;33163;0.000;0.000;2022-10-16T02:10:16;1.75;;;0.80;;
47413;SDS011;33163;0.000;0.000;2022-10-16T02:12:44;3.20;;;1.02;;
47413;SDS011;33163;0.000;0.000;2022-10-16T02:15:17;2.58;;;0.80;;
47413;SDS011;33163;0.000;0.000;2022-10-16T02:17:43;0.77;;;0.70;;
47413;SDS011;33163;0.000;0.000;2022-10-16T02:20:10;1.40;;;0.98;;
47413;SDS011;33163;0.000;0.000;2022-10-16T02:22:38;2.53;;;1.00;;
47413;SDS011;33163;0.000;0.000;2022-10-16T02:25:08;1.15;;;0.82;;
47413;SDS011;33163;0.000;0.000;2022-10-16T02:27:39;1.48;;;1.00;;
47413;SDS011;33163;0.000;0.000;2022-10-16T02:30:11;2.45;;;1.05;;
47413;SDS011;33163;0.000;0.000;2022-10-16T02:32:42;0.88;;;0.70;;
47413;SDS011;33163;0.000;0.000;2022-10-16T02:35:12;1.52;;;0.73;;
47413;SDS011;33163;0.000;0.000;2022-10-16T02:37:41;0.77;;;0.77;;
47413;SDS011;33163;0.000;0.000;2022-10-16T02:40:09;0.60;;;0.60;;
47413;SDS011;33163;0.000;0.000;2022-10-16T02:42:38;1.88;;;0.80;;
47413;SDS011;33163;0.000;0.000;2022-10-16T02:45:06;1.88;;;0.85;;
47413;SDS011;33163;0.000;0.000;2022-10-16T02:47:34;2.00;;;1.00;;
47413;SDS011;33163;0.000;0.000;2022-10-16T02:50:02;2.40;;;1.00;;
47413;SDS011;33163;0.000;0.000;2022-10-16T02:52:30;1.63;;;0.80;;
47413;SDS011;33163;0.000;0.000;2022-10-16T02:54:56;2.15;;;1.02;;
47413;SDS011;33163;0.000;0.000;2022-10-16T02:57:23;2.60;;;0.80;;
47413;SDS011;33163;0.000;0.000;2022-10-16T02:59:50;1.40;;;0.70;;
47413;SDS011;33163;0.000;0.000;2022-10-16T03:02:17;1.00;;;0.65;;
47413;SDS011;33163;0.000;0.000;2022-10-16T03:04:43;1.92;;;1.00;;
47413;SDS011;33163;0.000;0.000;2022-10-16T03:07:11;1.00;;;0.73;;
47413;SDS011;33163;0.000;0.000;2022-10-16T03:09:38;3.05;;;1.02;;
47413;SDS011;33163;0.000;0.000;2022-10-16T03:12:05;1.17;;;1.05;;
47413;SDS011;33163;0.000;0.000;2022-10-16T03:14:32;2.65;;;0.85;;
47413;SDS011;33163;0.000;0.000;2022-10-16T03:16:58;3.65;;;1.05;;
47413;SDS011;33163;0.000;0.000;2022-10-16T03:19:25;0.95;;;0.70;;
47413;SDS011;33163;0.000;0.000;2022-10-16T03:21:52;2.10;;;0.93;;
47413;SDS011;33163;0.000;0.000;2022-10-16T03:24:20;1.83;;;0.95;;
47413;SDS011;33163;0.000;0.000;2022-10-16T03:26:47;1.90;;;0.70;;
47413;SDS011;33163;0.000;0.000;2022-10-16T03:29:13;1.90;;;1.00;;
47413;SDS011;33163;0.000;0.000;2022-10-16T03:31:40;2.65;;;0.90;;
47413;SDS011;33163;0.000;0.000;2022-10-16T03:34:07;1.27;;;0.80;;
47413;SDS011;33163;0.000;0.000;2022-10-16T03:36:34;2.47;;;0.98;;
47413;SDS011;33163;0.000;0.000;2022-10-16T03:39:00;1.35;;;1.02;;
47413;SDS011;33163;0.000;0.000;2022-10-16T03:41:28;1.45;;;0.80;;
47413;SDS011;33163;0.000;0.000;2022-10-16T03:43:55;0.68;;;0.60;;
47413;SDS011;33163;0.000;0.000;2022-10-16T03:46:22;1.30;;;0.80;;
47413;SDS011;33163;0.000;0.000;2022-10-16T03:48:49;1.63;;;0.60;;
47413;SDS011;33163;0.000;0.000;2022-10-16T03:51:15;2.13;;;0.90;;
47413;SDS011;33163;0.000;0.000;2022-10-16T03:53:42;1.00;;;0.70;;
47413;SDS011;33163;0.000;0.000;2022-10-16T03:56:09;0.88;;;0.73;;
47413;SDS011;33163;0.000;0.000;2022-10-16T03:58:37;0.68;;;0.68;;
47413;SDS011;33163;0.000;0.000;2022-10-16T04:01:04;1.40;;;0.77;;
47413;SDS011;33163;0.000;0.000;2022-10-16T04:03:30;0.85;;;0.63;;
47413;SDS011;33163;0.000;0.000;2022-10-16T04:05:57;0.95;;;0.60;;
47413;SDS011;33163;0.000;0.000;2022-10-16T04:08:24;1.05;;;0.88;;
47413;SDS011;33163;0.000;0.000;2022-10-16T04:10:51;4.95;;;1.10;;
47413;SDS011;33163;0.000;0.000;2022-10-16T04:13:17;0.68;;;0.68;;
47413;SDS011;33163;0.000;0.000;2022-10-16T04:15:45;1.50;;;1.00;;
47413;SDS011;33163;0.000;0.000;2022-10-16T04:18:12;1.40;;;0.90;;
47413;SDS011;33163;0.000;0.000;2022-10-16T04:20:39;0.77;;;0.70;;
47413;SDS011;33163;0.000;0.000;2022-10-16T04:23:06;1.20;;;0.70;;
47413;SDS011;33163;0.000;0.000;2022-10-16T04:25:33;0.68;;;0.68;;
47413;SDS011;33163;0.000;0.000;2022-10-16T04:28:00;0.45;;;0.45;;
47413;SDS011;33163;0.000;0.000;2022-10-16T04:30:26;3.15;;;0.80;;
47413;SDS011;33163;0.000;0.000;2022-10-16T04:32:54;1.33;;;0.80;;
47413;SDS011;33163;0.000;0.000;2022-10-16T04:35:21;3.03;;;1.10;;
47413;SDS011;33163;0.000;0.000;2022-10-16T04:37:48;2.35;;;0.88;;
47413;SDS011;33163;0.000;0.000;2022-10-16T04:40:15;0.88;;;0.68;;
47413;SDS011;33163;0.000;0.000;2022-10-16T04:42:42;0.98;;;0.75;;
47413;SDS011;33163;0.000;0.000;2022-10-16T04:45:09;1.27;;;0.68;;
47413;SDS011;33163;0.000;0.000;2022-10-16T04:47:36;1.33;;;0.98;;
47413;SDS011;33163;0.000;0.000;2022-10-16T04:50:04;0.85;;;0.85;;
47413;SDS011;33163;0.000;0.000;2022-10-16T04:52:32;1.10;;;0.73;;
47413;SDS011;33163;0.000;0.000;2022-10-16T04:54:59;2.13;;;0.70;;
47413;SDS011;33163;0.000;0.000;2022-10-16T04:57:27;1.63;;;0.88;;
47413;SDS011;33163;0.000;0.000;2022-10-16T04:59:54;1.08;;;0.90;;
47413;SDS011;33163;0.000;0.000;2022-10-16T05:02:21;0.60;;;0.60;;
47413;SDS011;33163;0.000;0.000;2022-10-16T05:04:48;1.48;;;0.90;;
47413;SDS011;33163;0.000;0.000;2022-10-16T05:07:16;1.73;;;0.85;;
47413;SDS011;33163;0.000;0.000;2022-10-16T05:09:43;1.77;;;0.90;;
47413;SDS011;33163;0.000;0.000;2022-10-16T05:12:09;1.00;;;0.80;;
47413;SDS011;33163;0.000;0.000;2022-10-16T05:14:36;2.00;;;0.90;;
47413;SDS011;33163;0.000;0.000;2022-10-16T05:17:03;1.35;;;0.75;;
47413;SDS011;33163;0.000;0.000;2022-10-16T05:19:29;1.77;;;0.68;;
47413;SDS011;33163;0.000;0.000;2022-10-16T05:21:56;1.70;;;0.85;;
47413;SDS011;33163;0.000;0.000;2022-10-16T05:24:24;0.75;;;0.75;;
47413;SDS011;33163;0.000;0.000;2022-10-16T05:26:51;0.70;;;0.55;;
47413;SDS011;33163;0.000;0.000;2022-10-16T05:29:18;0.75;;;0.75;;
47413;SDS011;33163;0.000;0.000;2022-10-16T05:31:45;1.48;;;1.00;;
47413;SDS011;33163;0.000;0.000;2022-10-16T05:34:12;1.98;;;0.88;;
47413;SDS011;33163;0.000;0.000;2022-10-16T05:36:38;1.17;;;0.70;;
47413;SDS011;33163;0.000;0.000;2022-10-16T05:39:05;1.73;;;0.88;;
47413;SDS011;33163;0.000;0.000;2022-10-16T05:41:33;1.42;;;0.90;;
47413;SDS011;33163;0.000;0.000;2022-10-16T05:44:00;1.38;;;0.88;;
47413;SDS011;33163;0.000;0.000;2022-10-16T05:46:30;1.52;;;0.70;;
47413;SDS011;33163;0.000;0.000;2022-10-16T05:48:57;3.25;;;0.77;;
47413;SDS011;33163;0.000;0.000;2022-10-16T05:51:24;1.80;;;0.85;;
47413;SDS011;33163;0.000;0.000;2022-10-16T05:53:51;1.92;;;0.70;;
47413;SDS011;33163;0.000;0.000;2022-10-16T05:56:18;1.50;;;0.77;;
47413;SDS011;33163;0.000;0.000;2022-10-16T05:58:46;1.48;;;0.98;;
47413;SDS011;33163;0.000;0.000;2022-10-16T06:01:14;1.27;;;0.90;;
47413;SDS011;33163;0.000;0.000;2022-10-16T06:03:42;3.25;;;0.90;;
47413;SDS011;33163;0.000;0.000;2022-10-16T06:06:09;2.80;;;1.00;;
47413;SDS011;33163;0.000;0.000;2022-10-16T06:08:36;1.52;;;0.90;;
47413;SDS011;33163;0.000;0.000;2022-10-16T06:11:04;1.60;;;0.90;;
47413;SDS011;33163;0.000;0.000;2022-10-16T06:13:32;0.95;;;0.85;;
47413;SDS011;33163;0.000;0.000;2022-10-16T06:16:01;1.40;;;0.77;;
47413;SDS011;33163;0.000;0.000;2022-10-16T06:18:28;1.25;;;0.77;;
47413;SDS011;33163;0.000;0.000;2022-10-16T06:20:55;2.17;;;1.02;;
47413;SDS011;33163;0.000;0.000;2022-10-16T06:23:22;2.25;;;0.93;;
47413;SDS011;33163;0.000;0.000;2022-10-16T06:25:49;2.78;;;0.90;;
47413;SDS011;33163;0.000;0.000;2022-10-16T06:28:16;3.10;;;1.17;;
47413;SDS011;33163;0.000;0.000;2022-10-16T06:30:43;1.48;;;0.63;;
47413;SDS011;33163;0.000;0.000;2022-10-16T06:33:12;1.45;;;0.70;;
47413;SDS011;33163;0.000;0.000;2022-10-16T06:35:39;2.00;;;1.13;;
47413;SDS011;33163;0.000;0.000;2022-10-16T06:38:06;3.08;;;1.15;;
47413;SDS011;33163;0.000;0.000;2022-10-16T06:40:32;0.95;;;0.75;;
47413;SDS011;33163;0.000;0.000;2022-10-16T06:42:59;3.97;;;1.00;;
47413;SDS011;33163;0.000;0.000;2022-10-16T06:45:26;2.88;;;0.85;;
47413;SDS011;33163;0.000;0.000;2022-10-16T06:47:52;1.05;;;0.75;;
47413;SDS011;33163;0.000;0.000;2022-10-16T06:50:20;2.90;;;0.80;;
47413;SDS011;33163;0.000;0.000;2022-10-16T06:52:47;4.18;;;0.95;;
47413;SDS011;33163;0.000;0.000;2022-10-16T06:55:14;2.42;;;1.00;;
47413;SDS011;33163;0.000;0.000;2022-10-16T06:57:42;2.28;;;0.93;;
47413;SDS011;33163;0.000;0.000;2022-10-16T07:00:09;2.72;;;0.90;;
47413;SDS011;33163;0.000;0.000;2022-10-16T07:02:36;1.65;;;0.82;;
47413;SDS011;33163;0.000;0.000;2022-10-16T07:05:03;1.23;;;0.85;;
47413;SDS011;33163;0.000;0.000;2022-10-16T07:07:31;3.00;;;1.00;;
47413;SDS011;33163;0.000;0.000;2022-10-16T07:09:58;4.25;;;1.20;;
47413;SDS011;33163;0.000;0.000;2022-10-16T07:12:25;3.33;;;0.90;;
47413;SDS011;33163;0.000;0.000;2022-10-16T07:14:51;4.43;;;1.15;;
47413;SDS011;33163;0.000;0.000;2022-10-16T07:17:19;5.13;;;1.35;;
47413;SDS011;33163;0.000;0.000;2022-10-16T07:19:46;3.63;;;1.00;;
47413;SDS011;33163;0.000;0.000;2022-10-16T07:22:13;3.55;;;1.30;;
47413;SDS011;33163;0.000;0.000;2022-10-16T07:24:41;3.95;;;1.40;;
47413;SDS011;33163;0.000;0.000;2022-10-16T07:27:08;2.20;;;1.00;;
47413;SDS011;33163;0.000;0.000;2022-10-16T07:29:35;5.82;;;1.15;;
47413;SDS011;33163;0.000;0.000;2022-10-16T07:32:01;3.65;;;1.00;;
47413;SDS011;33163;0.000;0.000;2022-10-16T07:34:28;4.10;;;1.13;;
47413;SDS011;33163;0.000;0.000;2022-10-16T07:36:55;1.58;;;0.88;;
47413;SDS011;33163;0.000;0.000;2022-10-16T07:39:22;2.20;;;0.98;;
47413;SDS011;33163;0.000;0.000;2022-10-16T07:41:50;2.33;;;1.00;;
47413;SDS011;33163;0.000;0.000;2022-10-16T07:44:16;6.55;;;1.40;;
47413;SDS011;33163;0.000;0.000;2022-10-16T07:46:43;2.90;;;1.40;;
47413;SDS011;33163;0.000;0.000;2022-10-16T07:49:10;6.95;;;2.08;;
47413;SDS011;33163;0.000;0.000;2022-10-16T07:51:37;1.30;;;0.80;;
47413;SDS011;33163;0.000;0.000;2022-10-16T07:54:04;4.47;;;1.10;;
47413;SDS011;33163;0.000;0.000;2022-10-16T07:56:31;4.32;;;1.45;;
47413;SDS011;33163;0.000;0.000;2022-10-16T07:58:59;2.42;;;1.20;;
47413;SDS011;33163;0.000;0.000;2022-10-16T08:01:26;3.22;;;1.02;;
47413;SDS011;33163;0.000;0.000;2022-10-16T08:03:53;2.05;;;0.93;;
47413;SDS011;33163;0.000;0.000;2022-10-16T08:06:21;5.68;;;1.35;;
47413;SDS011;33163;0.000;0.000;2022-10-16T08:08:48;2.92;;;1.02;;
47413;SDS011;33163;0.000;0.000;2022-10-16T08:11:15;3.17;;;0.85;;
47413;SDS011;33163;0.000;0.000;2022-10-16T08:13:42;2.10;;;0.93;;
47413;SDS011;33163;0.000;0.000;2022-10-16T08:16:10;4.28;;;1.45;;
47413;SDS011;33163;0.000;0.000;2022-10-16T08:18:37;6.00;;;1.90;;
47413;SDS011;33163;0.000;0.000;2022-10-16T08:21:05;5.28;;;1.48;;
47413;SDS011;33163;0.000;0.000;2022-10-16T08:23:33;4.38;;;1.00;;
47413;SDS011;33163;0.000;0.000;2022-10-16T08:26:05;4.68;;;1.52;;
47413;SDS011;33163;0.000;0.000;2022-10-16T08:28:33;2.72;;;1.20;;
47413;SDS011;33163;0.000;0.000;2022-10-16T08:31:04;3.33;;;1.73;;
47413;SDS011;33163;0.000;0.000;2022-10-16T08:33:34;3.05;;;1.25;;
47413;SDS011;33163;0.000;0.000;2022-10-16T08:36:01;5.28;;;1.42;;
47413;SDS011;33163;0.000;0.000;2022-10-16T08:38:28;2.78;;;1.40;;
47413;SDS011;33163;0.000;0.000;2022-10-16T08:40:55;5.47;;;1.40;;
47413;SDS011;33163;0.000;0.000;2022-10-16T08:43:36;3.45;;;1.10;;
47413;SDS011;33163;0.000;0.000;2022-10-16T08:46:24;3.08;;;1.20;;
47413;SDS011;33163;0.000;0.000;2022-10-16T08:49:02;5.93;;;1.05;;
47413;SDS011;33163;0.000;0.000;2022-10-16T08:51:30;9.55;;;1.40;;
47413;SDS011;33163;0.000;0.000;2022-10-16T08:53:59;6.63;;;1.30;;
47413;SDS011;33163;0.000;0.000;2022-10-16T08:56:30;4.45;;;1.20;;
47413;SDS011;33163;0.000;0.000;2022-10-16T08:58:59;9.23;;;1.75;;
47413;SDS011;33163;0.000;0.000;2022-10-16T09:01:32;5.78;;;1.17;;
47413;SDS011;33163;0.000;0.000;2022-10-16T09:04:18;5.60;;;1.88;;
47413;SDS011;33163;0.000;0.000;2022-10-16T09:07:11;3.55;;;1.20;;
47413;SDS011;33163;0.000;0.000;2022-10-16T09:09:46;5.38;;;1.10;;
47413;SDS011;33163;0.000;0.000;2022-10-16T09:12:23;6.10;;;1.05;;
47413;SDS011;33163;0.000;0.000;2022-10-16T09:14:55;4.78;;;1.60;;
47413;SDS011;33163;0.000;0.000;2022-10-16T09:17:37;6.00;;;1.48;;
47413;SDS011;33163;0.000;0.000;2022-10-16T09:20:18;6.72;;;1.27;;
47413;SDS011;33163;0.000;0.000;2022-10-16T09:22:53;4.22;;;1.08;;
47413;SDS011;33163;0.000;0.000;2022-10-16T09:25:26;12.55;;;1.50;;
47413;SDS011;33163;0.000;0.000;2022-10-16T09:27:53;5.35;;;1.08;;
47413;SDS011;33163;0.000;0.000;2022-10-16T09:30:21;4.10;;;1.15;;
47413;SDS011;33163;0.000;0.000;2022-10-16T09:32:49;6.07;;;1.80;;
47413;SDS011;33163;0.000;0.000;2022-10-16T09:35:20;5.95;;;1.45;;
47413;SDS011;33163;0.000;0.000;2022-10-16T09:37:51;6.60;;;1.20;;
47413;SDS011;33163;0.000;0.000;2022-10-16T09:40:24;4.90;;;1.80;;
47413;SDS011;33163;0.000;0.000;2022-10-16T09:42:52;7.00;;;1.20;;
47413;SDS011;33163;0.000;0.000;2022-10-16T09:45:27;8.02;;;2.08;;
47413;SDS011;33163;0.000;0.000;2022-10-16T09:47:53;10.10;;;1.65;;
47413;SDS011;33163;0.000;0.000;2022-10-16T09:50:23;5.20;;;1.20;;
47413;SDS011;33163;0.000;0.000;2022-10-16T09:53:02;7.40;;;1.85;;
47413;SDS011;33163;0.000;0.000;2022-10-16T09:55:36;10.25;;;2.53;;
47413;SDS011;33163;0.000;0.000;2022-10-16T09:58:13;12.07;;;2.17;;
47413;SDS011;33163;0.000;0.000;2022-10-16T10:00:40;14.98;;;3.25;;
47413;SDS011;33163;0.000;0.000;2022-10-16T10:03:15;13.35;;;2.17;;
47413;SDS011;33163;0.000;0.000;2022-10-16T10:06:05;29.83;;;2.50;;
47413;SDS011;33163;0.000;0.000;2022-10-16T10:08:52;17.85;;;2.90;;
47413;SDS011;33163;0.000;0.000;2022-10-16T10:11:40;25.95;;;2.80;;
47413;SDS011;33163;0.000;0.000;2022-10-16T10:14:23;12.38;;;2.85;;
47413;SDS011;33163;0.000;0.000;2022-10-16T10:17:01;11.95;;;2.20;;
47413;SDS011;33163;0.000;0.000;2022-10-16T10:19:37;17.23;;;2.83;;
47413;SDS011;33163;0.000;0.000;2022-10-16T10:22:15;11.45;;;2.22;;
47413;SDS011;33163;0.000;0.000;2022-10-16T10:24:57;13.13;;;2.22;;
47413;SDS011;33163;0.000;0.000;2022-10-16T10:27:53;14.23;;;2.35;;
47413;SDS011;33163;0.000;0.000;2022-10-16T10:30:33;17.92;;;2.90;;
47413;SDS011;33163;0.000;0.000;2022-10-16T10:33:12;14.05;;;2.55;;
47413;SDS011;33163;0.000;0.000;2022-10-16T10:35:48;15.40;;;2.55;;
47413;SDS011;33163;0.000;0.000;2022-10-16T10:38:27;13.95;;;3.25;;
47413;SDS011;33163;0.000;0.000;2022-10-16T10:41:03;13.18;;;2.35;;
47413;SDS011;33163;0.000;0.000;2022-10-16T10:43:53;13.68;;;3.20;;
47413;SDS011;33163;0.000;0.000;2022-10-16T10:46:29;13.32;;;2.88;;
47413;SDS011;33163;0.000;0.000;2022-10-16T10:49:09;16.60;;;2.63;;
47413;SDS011;33163;0.000;0.000;2022-10-16T10:54:30;10.23;;;2.40;;
47413;SDS011;33163;0.000;0.000;2022-10-16T10:57:02;12.40;;;2.50;;
47413;SDS011;33163;0.000;0.000;2022-10-16T10:59:52;5.63;;;2.13;;
47413;SDS011;33163;0.000;0.000;2022-10-16T11:05:13;11.68;;;2.33;;
47413;SDS011;33163;0.000;0.000;2022-10-16T11:07:54;15.30;;;2.33;;
47413;SDS011;33163;0.000;0.000;2022-10-16T11:10:27;18.70;;;2.72;;
47413;SDS011;33163;0.000;0.000;2022-10-16T11:12:58;9.57;;;2.42;;
47413;SDS011;33163;0.000;0.000;2022-10-16T11:15:31;16.85;;;2.53;;
47413;SDS011;33163;0.000;0.000;2022-10-16T11:18:03;15.18;;;2.83;;
47413;SDS011;33163;0.000;0.000;2022-10-16T11:20:33;9.23;;;2.33;;
47413;SDS011;33163;0.000;0.000;2022-10-16T11:23:06;11.30;;;1.88;;
47413;SDS011;33163;0.000;0.000;2022-10-16T11:25:39;16.95;;;2.28;;
47413;SDS011;33163;0.000;0.000;2022-10-16T11:28:08;17.42;;;2.10;;
47413;SDS011;33163;0.000;0.000;2022-10-16T11:30:41;24.45;;;3.08;;
47413;SDS011;33163;0.000;0.000;2022-10-16T11:33:23;15.38;;;2.70;;
47413;SDS011;33163;0.000;0.000;2022-10-16T11:35:59;11.45;;;2.58;;
47413;SDS011;33163;0.000;0.000;2022-10-16T11:38:30;17.25;;;2.70;;
47413;SDS011;33163;0.000;0.000;2022-10-16T11:41:09;14.90;;;2.92;;
47413;SDS011;33163;0.000;0.000;2022-10-16T11:43:45;15.32;;;3.05;;
47413;SDS011;33163;0.000;0.000;2022-10-16T11:46:19;7.47;;;2.17;;
47413;SDS011;33163;0.000;0.000;2022-10-16T11:48:49;10.38;;;2.10;;
47413;SDS011;33163;0.000;0.000;2022-10-16T11:51:21;16.45;;;2.92;;
47413;SDS011;33163;0.000;0.000;2022-10-16T11:53:56;7.95;;;2.55;;
47413;SDS011;33163;0.000;0.000;2022-10-16T11:56:28;10.07;;;2.05;;
47413;SDS011;33163;0.000;0.000;2022-10-16T11:58:58;11.40;;;2.03;;
47413;SDS011;33163;0.000;0.000;2022-10-16T12:01:31;13.50;;;1.80;;
47413;SDS011;33163;0.000;0.000;2022-10-16T12:04:12;11.93;;;2.10;;
47413;SDS011;33163;0.000;0.000;2022-10-16T12:06:46;10.00;;;1.63;;
47413;SDS011;33163;0.000;0.000;2022-10-16T12:09:19;6.72;;;1.85;;
47413;SDS011;33163;0.000;0.000;2022-10-16T12:11:50;13.75;;;2.20;;
47413;SDS011;33163;0.000;0.000;2022-10-16T12:14:22;12.35;;;2.40;;
47413;SDS011;33163;0.000;0.000;2022-10-16T12:17:01;10.25;;;2.08;;
47413;SDS011;33163;0.000;0.000;2022-10-16T12:19:31;11.60;;;2.28;;
47413;SDS011;33163;0.000;0.000;2022-10-16T12:21:59;9.32;;;2.33;;
47413;SDS011;33163;0.000;0.000;2022-10-16T12:24:31;9.80;;;1.85;;
47413;SDS011;33163;0.000;0.000;2022-10-16T12:27:02;13.02;;;2.67;;
47413;SDS011;33163;0.000;0.000;2022-10-16T12:29:33;10.75;;;2.08;;
47413;SDS011;33163;0.000;0.000;2022-10-16T12:32:03;10.68;;;2.42;;
47413;SDS011;33163;0.000;0.000;2022-10-16T12:34:34;18.67;;;2.80;;
47413;SDS011;33163;0.000;0.000;2022-10-16T12:37:12;13.23;;;2.83;;
47413;SDS011;33163;0.000;0.000;2022-10-16T12:39:41;11.85;;;2.15;;
47413;SDS011;33163;0.000;0.000;2022-10-16T12:42:21;12.68;;;2.00;;
47413;SDS011;33163;0.000;0.000;2022-10-16T12:44:49;11.60;;;2.10;;
47413;SDS011;33163;0.000;0.000;2022-10-16T12:47:20;14.10;;;2.17;;
47413;SDS011;33163;0.000;0.000;2022-10-16T12:49:49;12.23;;;2.28;;
47413;SDS011;33163;0.000;0.000;2022-10-16T12:52:23;10.82;;;2.25;;
47413;SDS011;33163;0.000;0.000;2022-10-16T12:54:55;11.10;;;2.78;;
47413;SDS011;33163;0.000;0.000;2022-10-16T12:57:32;9.65;;;2.10;;
47413;SDS011;33163;0.000;0.000;2022-10-16T13:00:09;9.15;;;2.05;;
47413;SDS011;33163;0.000;0.000;2022-10-16T13:05:43;12.18;;;2.47;;
47413;SDS011;33163;0.000;0.000;2022-10-16T13:08:23;8.30;;;2.35;;
47413;SDS011;33163;0.000;0.000;2022-10-16T13:11:03;10.10;;;1.93;;
47413;SDS011;33163;0.000;0.000;2022-10-16T13:13:40;11.43;;;2.05;;
47413;SDS011;33163;0.000;0.000;2022-10-16T13:16:23;12.70;;;2.13;;
47413;SDS011;33163;0.000;0.000;2022-10-16T13:19:01;11.20;;;2.08;;
47413;SDS011;33163;0.000;0.000;2022-10-16T13:21:39;12.05;;;2.45;;
47413;SDS011;33163;0.000;0.000;2022-10-16T13:24:15;15.93;;;2.40;;
47413;SDS011;33163;0.000;0.000;2022-10-16T13:26:53;17.73;;;3.13;;
47413;SDS011;33163;0.000;0.000;2022-10-16T13:29:30;10.07;;;2.05;;
47413;SDS011;33163;0.000;0.000;2022-10-16T13:31:58;12.10;;;2.50;;
47413;SDS011;33163;0.000;0.000;2022-10-16T13:34:26;11.98;;;2.53;;
47413;SDS011;33163;0.000;0.000;2022-10-16T13:36:54;9.07;;;2.83;;
47413;SDS011;33163;0.000;0.000;2022-10-16T13:39:21;13.18;;;2.80;;
47413;SDS011;33163;0.000;0.000;2022-10-16T13:42:03;16.80;;;2.22;;
47413;SDS011;33163;0.000;0.000;2022-10-16T13:44:35;12.10;;;2.17;;
47413;SDS011;33163;0.000;0.000;2022-10-16T13:47:05;7.18;;;1.80;;
47413;SDS011;33163;0.000;0.000;2022-10-16T13:49:40;12.90;;;2.50;;
47413;SDS011;33163;0.000;0.000;2022-10-16T13:52:15;11.23;;;2.33;;
47413;SDS011;33163;0.000;0.000;2022-10-16T13:54:44;8.68;;;2.15;;
47413;SDS011;33163;0.000;0.000;2022-10-16T13:57:12;9.18;;;2.42;;
47413;SDS011;33163;0.000;0.000;2022-10-16T13:59:41;16.17;;;2.38;;
47413;SDS011;33163;0.000;0.000;2022-10-16T14:02:10;7.88;;;1.95;;
47413;SDS011;33163;0.000;0.000;2022-10-16T14:04:44;11.05;;;2.00;;
47413;SDS011;33163;0.000;0.000;2022-10-16T14:07:13;10.02;;;1.85;;
47413;SDS011;33163;0.000;0.000;2022-10-16T14:09:47;9.93;;;2.00;;
47413;SDS011;33163;0.000;0.000;2022-10-16T14:12:15;8.93;;;2.25;;
47413;SDS011;33163;0.000;0.000;2022-10-16T14:14:44;12.65;;;2.33;;
47413;SDS011;33163;0.000;0.000;2022-10-16T14:17:15;12.60;;;1.95;;
47413;SDS011;33163;0.000;0.000;2022-10-16T14:19:46;11.18;;;2.35;;
47413;SDS011;33163;0.000;0.000;2022-10-16T14:22:21;6.05;;;1.73;;
47413;SDS011;33163;0.000;0.000;2022-10-16T14:24:53;8.07;;;1.95;;
47413;SDS011;33163;0.000;0.000;2022-10-16T14:27:28;9.30;;;2.28;;
47413;SDS011;33163;0.000;0.000;2022-10-16T14:30:15;11.43;;;2.33;;
47413;SDS011;33163;0.000;0.000;2022-10-16T14:32:53;10.88;;;2.00;;
47413;SDS011;33163;0.000;0.000;2022-10-16T14:35:22;7.22;;;2.20;;
47413;SDS011;33163;0.000;0.000;2022-10-16T14:37:53;9.25;;;1.98;;
47413;SDS011;33163;0.000;0.000;2022-10-16T14:40:22;7.95;;;2.05;;
47413;SDS011;33163;0.000;0.000;2022-10-16T14:42:50;9.13;;;2.00;;
47413;SDS011;33163;0.000;0.000;2022-10-16T14:45:20;11.65;;;2.20;;
47413;SDS011;33163;0.000;0.000;2022-10-16T14:47:48;9.02;;;2.78;;
47413;SDS011;33163;0.000;0.000;2022-10-16T14:50:17;8.35;;;1.73;;
47413;SDS011;33163;0.000;0.000;2022-10-16T14:52:43;9.20;;;2.20;;
47413;SDS011;33163;0.000;0.000;2022-10-16T14:55:10;9.27;;;2.10;;
47413;SDS011;33163;0.000;0.000;2022-10-16T14:57:37;9.63;;;1.67;;
47413;SDS011;33163;0.000;0.000;2022-10-16T15:00:08;11.13;;;2.38;;
47413;SDS011;33163;0.000;0.000;2022-10-16T15:02:42;9.50;;;1.95;;
47413;SDS011;33163;0.000;0.000;2022-10-16T15:05:11;8.15;;;1.95;;
47413;SDS011;33163;0.000;0.000;2022-10-16T15:07:40;8.50;;;1.55;;
47413;SDS011;33163;0.000;0.000;2022-10-16T15:10:09;10.40;;;2.20;;
47413;SDS011;33163;0.000;0.000;2022-10-16T15:12:37;15.07;;;2.53;;
47413;SDS011;33163;0.000;0.000;2022-10-16T15:18:04;11.95;;;2.33;;
47413;SDS011;33163;0.000;0.000;2022-10-16T15:20:31;7.88;;;2.05;;
47413;SDS011;33163;0.000;0.000;2022-10-16T15:22:59;8.70;;;1.80;;
47413;SDS011;33163;0.000;0.000;2022-10-16T15:25:29;9.85;;;2.20;;
47413;SDS011;33163;0.000;0.000;2022-10-16T15:27:58;5.95;;;1.52;;
47413;SDS011;33163;0.000;0.000;2022-10-16T15:30:26;11.80;;;2.00;;
47413;SDS011;33163;0.000;0.000;2022-10-16T15:32:53;16.08;;;2.50;;